Time;durP1;ratioP1;P1;durP2;ratioP2;P2;SDS_P1;SDS_P2;PMS_P1;PMS_P2;Temp;Humidity;BMP_temperature;BMP_pressure;BME280_temperature;BME280_humidity;BME280_pressure;Samples;Min_cycle;Max_cycle;Signal;HPM_P1;HPM_P2
2023/01/15 06:01:27;;;;;;;0.82;0.20;;;8.30;99.90;;;;;;5781723;23;20028;-72
2023/01/15 06:03:54;;;;;;;1.00;0.20;;;8.30;99.90;;;;;;4964347;29;20038;-72
2023/01/15 06:06:20;;;;;;;0.57;0.20;;;8.20;99.90;;;;;;4955705;29;20055;-70
2023/01/15 06:08:46;;;;;;;0.65;0.13;;;8.20;99.90;;;;;;4951778;29;20332;-71
2023/01/15 06:11:12;;;;;;;0.50;0.13;;;8.20;99.90;;;;;;4951249;29;20042;-71
2023/01/15 06:13:39;;;;;;;0.28;0.08;;;8.20;99.90;;;;;;4947446;29;20037;-70
2023/01/15 06:16:05;;;;;;;0.73;0.10;;;8.10;99.90;;;;;;4951412;29;20039;-72
2023/01/15 06:18:32;;;;;;;0.60;0.10;;;8.00;99.90;;;;;;4956683;29;20031;-71
2023/01/15 06:21:03;;;;;;;0.13;0.03;;;8.10;99.90;;;;;;4970266;28;20055;-71
2023/01/15 06:23:29;;;;;;;0.10;0.10;;;8.10;99.90;;;;;;4967505;28;20039;-71
2023/01/15 06:25:59;;;;;;;0.47;0.10;;;8.10;99.90;;;;;;4966801;28;20297;-71
2023/01/15 06:28:25;;;;;;;0.30;0.10;;;8.00;99.90;;;;;;4966698;28;20083;-71
2023/01/15 06:30:50;;;;;;;0.30;0.10;;;8.00;99.90;;;;;;4965997;28;20070;-71
2023/01/15 06:33:16;;;;;;;0.13;0.00;;;7.90;99.90;;;;;;4966405;28;20039;-71
2023/01/15 06:35:42;;;;;;;0.40;0.00;;;7.90;99.90;;;;;;4964829;28;20086;-71
2023/01/15 06:38:07;;;;;;;0.10;0.00;;;7.90;99.90;;;;;;4967030;29;20035;-70
2023/01/15 06:40:33;;;;;;;0.10;0.00;;;7.90;99.90;;;;;;4965700;28;20206;-71
2023/01/15 06:48:28;;;;;;;0.70;0.10;;;7.70;99.90;;;;;;4965922;29;20046;-72
2023/01/15 06:50:53;;;;;;;0.98;0.00;;;7.70;99.90;;;;;;4965610;28;20046;-71
2023/01/15 06:53:20;;;;;;;0.30;0.10;;;7.60;99.90;;;;;;4966146;28;20035;-71
2023/01/15 06:55:46;;;;;;;0.15;0.10;;;7.50;99.90;;;;;;4965380;29;20216;-71
2023/01/15 06:58:12;;;;;;;0.30;0.10;;;7.50;99.90;;;;;;4965657;28;20039;-71
2023/01/15 07:00:39;;;;;;;0.10;0.10;;;7.40;99.90;;;;;;4965534;28;20369;-71
2023/01/15 07:03:05;;;;;;;0.40;0.10;;;7.40;99.90;;;;;;4958425;28;20056;-71
2023/01/15 07:05:31;;;;;;;0.22;0.10;;;7.40;99.90;;;;;;4946783;29;20030;-71
2023/01/15 07:07:57;;;;;;;0.03;0.00;;;7.30;99.90;;;;;;4945807;29;20322;-70
2023/01/15 07:10:23;;;;;;;1.10;0.10;;;7.30;99.90;;;;;;4946592;29;20135;-71
2023/01/15 07:12:48;;;;;;;0.32;0.00;;;7.30;99.90;;;;;;4946024;29;20039;-71
2023/01/15 07:15:14;;;;;;;0.20;0.00;;;7.20;99.90;;;;;;4946223;29;20277;-71
2023/01/15 07:17:40;;;;;;;0.47;0.00;;;7.20;99.90;;;;;;4946088;29;20035;-71
2023/01/15 07:20:07;;;;;;;0.88;0.00;;;7.00;99.90;;;;;;4946199;29;20214;-70
2023/01/15 07:22:32;;;;;;;0.30;0.00;;;7.00;99.90;;;;;;4945943;29;20031;-70
2023/01/15 07:24:58;;;;;;;0.10;0.00;;;6.80;99.90;;;;;;4946027;29;20034;-70
2023/01/15 07:27:24;;;;;;;0.05;0.00;;;6.80;99.90;;;;;;4946093;29;20091;-71
2023/01/15 07:29:50;;;;;;;0.10;0.03;;;6.70;99.90;;;;;;4945536;29;20050;-71
2023/01/15 07:32:17;;;;;;;0.22;0.10;;;6.70;99.90;;;;;;4945805;29;20036;-71
2023/01/15 07:34:43;;;;;;;0.30;0.00;;;6.70;99.90;;;;;;4945185;29;20035;-71
2023/01/15 07:37:09;;;;;;;0.20;0.03;;;6.60;99.90;;;;;;4945591;29;20036;-72
2023/01/15 07:39:34;;;;;;;0.30;0.10;;;6.50;99.90;;;;;;4944974;29;20031;-72
2023/01/15 07:50:23;;;;;;;0.40;0.10;;;6.40;99.90;;;;;;4945945;29;20027;-75
2023/01/15 07:52:52;;;;;;;0.40;0.10;;;6.40;99.90;;;;;;4944274;29;20308;-74
2023/01/15 07:55:18;;;;;;;0.90;0.10;;;6.40;99.90;;;;;;4946186;29;20035;-71
2023/01/15 07:57:44;;;;;;;0.20;0.00;;;6.30;99.90;;;;;;4951953;29;20027;-71
2023/01/15 08:00:14;;;;;;;0.35;0.10;;;6.40;99.90;;;;;;4964885;29;20118;-75
2023/01/15 08:02:40;;;;;;;0.47;0.10;;;6.40;99.90;;;;;;4964034;28;20051;-73
2023/01/15 08:05:07;;;;;;;0.40;0.17;;;6.30;99.90;;;;;;4951674;28;20032;-70
2023/01/15 08:07:40;;;;;;;0.40;0.10;;;6.30;99.90;;;;;;4945638;29;20047;-71
2023/01/15 08:10:07;;;;;;;0.40;0.10;;;6.30;99.90;;;;;;4945651;29;20050;-68
2023/01/15 08:15:17;;;;;;;0.20;0.10;;;6.30;99.90;;;;;;4945436;29;20082;-66
2023/01/15 08:17:45;;;;;;;0.60;0.10;;;6.30;99.90;;;;;;4945036;29;20039;-67
2023/01/15 08:20:17;;;;;;;0.95;0.30;;;6.30;99.90;;;;;;4945405;29;20039;-69
2023/01/15 08:22:43;;;;;;;0.57;0.10;;;6.30;99.90;;;;;;4959605;29;20054;-69
2023/01/15 08:25:12;;;;;;;0.60;0.10;;;6.40;99.90;;;;;;4945462;29;20079;-69
2023/01/15 08:27:39;;;;;;;0.60;0.20;;;6.40;99.90;;;;;;4945151;29;20032;-74
2023/01/15 08:30:15;;;;;;;0.40;0.10;;;6.40;99.90;;;;;;4945070;29;20031;-74
2023/01/15 08:32:41;;;;;;;0.75;0.30;;;6.40;99.90;;;;;;4945439;29;20043;-74
2023/01/15 08:35:07;;;;;;;0.52;0.10;;;6.40;99.90;;;;;;4945021;29;20351;-71
2023/01/15 08:37:33;;;;;;;0.20;0.00;;;6.50;99.90;;;;;;4945168;29;20042;-73
2023/01/15 08:39:59;;;;;;;0.38;0.10;;;6.60;99.90;;;;;;4944766;29;20246;-71
2023/01/15 08:42:24;;;;;;;0.73;0.00;;;6.50;99.90;;;;;;4945200;29;20036;-71
2023/01/15 08:44:50;;;;;;;1.02;0.30;;;6.60;99.90;;;;;;4944539;29;20434;-71
2023/01/15 08:47:16;;;;;;;0.85;0.20;;;6.50;99.90;;;;;;4944682;29;20217;-71
2023/01/15 08:49:42;;;;;;;0.73;0.20;;;6.50;99.90;;;;;;4944607;29;20031;-71
2023/01/15 08:52:08;;;;;;;0.10;0.10;;;6.60;99.90;;;;;;4945002;29;20038;-71
2023/01/15 08:54:34;;;;;;;0.50;0.10;;;6.60;99.90;;;;;;4943865;29;20036;-69
2023/01/15 08:57:00;;;;;;;0.45;0.10;;;6.60;99.90;;;;;;4950047;29;20028;-73
2023/01/15 08:59:26;;;;;;;1.35;0.20;;;6.70;99.90;;;;;;4949489;28;20079;-71
2023/01/15 09:01:52;;;;;;;1.40;0.10;;;6.70;99.90;;;;;;4947314;29;20262;-71
2023/01/15 09:04:20;;;;;;;1.05;0.30;;;6.70;99.90;;;;;;4948712;29;20102;-70
2023/01/15 09:06:47;;;;;;;0.87;0.20;;;6.70;99.90;;;;;;4948094;29;20031;-71
2023/01/15 09:09:13;;;;;;;0.25;0.10;;;6.70;99.90;;;;;;4948458;29;20377;-72
2023/01/15 09:11:40;;;;;;;0.40;0.10;;;6.70;99.90;;;;;;4948209;29;20099;-70
2023/01/15 09:14:07;;;;;;;1.50;0.20;;;6.70;99.90;;;;;;4948465;29;20301;-71
2023/01/15 09:16:34;;;;;;;0.40;0.10;;;6.80;99.90;;;;;;4948274;29;20036;-71
2023/01/15 09:19:00;;;;;;;0.68;0.10;;;6.80;99.90;;;;;;4948358;29;20059;-71
2023/01/15 09:21:26;;;;;;;0.52;0.10;;;6.80;99.90;;;;;;4948363;29;20236;-71
2023/01/15 09:23:52;;;;;;;0.50;0.10;;;6.80;99.90;;;;;;4948318;29;20310;-71
2023/01/15 09:26:26;;;;;;;0.52;0.13;;;6.90;99.90;;;;;;4946988;29;20027;-70
2023/01/15 09:28:52;;;;;;;1.60;0.50;;;7.00;99.90;;;;;;4947929;29;20028;-70
2023/01/15 09:31:17;;;;;;;0.43;0.10;;;7.00;99.90;;;;;;4948337;29;20034;-70
2023/01/15 09:33:43;;;;;;;0.57;0.20;;;7.00;99.90;;;;;;4948417;29;20027;-71
2023/01/15 09:36:24;;;;;;;1.52;0.20;;;7.10;99.90;;;;;;4947062;29;20069;-71
2023/01/15 09:38:50;;;;;;;0.63;0.20;;;7.10;99.90;;;;;;4947722;29;20322;-74
2023/01/15 09:44:28;;;;;;;2.50;0.50;;;7.00;99.90;;;;;;4926180;29;20043;-74
2023/01/15 09:47:02;;;;;;;0.68;0.15;;;7.00;99.90;;;;;;4947596;29;20027;-76
2023/01/15 09:49:47;;;;;;;0.80;0.20;;;7.10;99.90;;;;;;4947254;29;20225;-75
2023/01/15 09:52:24;;;;;;;1.00;0.20;;;7.00;99.90;;;;;;4948129;29;20039;-73
2023/01/15 09:55:11;;;;;;;0.53;0.20;;;7.10;99.90;;;;;;4947638;29;20032;-75
2023/01/15 09:57:39;;;;;;;0.93;0.32;;;7.10;99.90;;;;;;4947661;29;20028;-73
2023/01/15 10:00:06;;;;;;;0.50;0.15;;;7.10;99.90;;;;;;4947175;29;20108;-71
2023/01/15 10:02:58;;;;;;;0.93;0.30;;;7.10;99.90;;;;;;4947269;29;20107;-70
2023/01/15 10:05:27;;;;;;;3.45;0.35;;;7.20;99.90;;;;;;4947926;29;20226;-70
2023/01/15 10:08:05;;;;;;;0.93;0.30;;;7.20;99.90;;;;;;4946907;29;20035;-71
2023/01/15 10:10:45;;;;;;;2.65;0.50;;;7.10;99.90;;;;;;4946399;29;20095;-71
2023/01/15 10:13:38;;;;;;;1.20;0.20;;;7.20;99.90;;;;;;4947907;29;20027;-78
2023/01/15 10:16:05;;;;;;;0.60;0.30;;;7.20;99.90;;;;;;4947096;29;20059;-74
2023/01/15 10:18:39;;;;;;;0.70;0.20;;;7.10;99.90;;;;;;4947433;29;20375;-75
2023/01/15 10:21:29;;;;;;;1.35;0.60;;;7.10;99.90;;;;;;4947227;29;20087;-71
2023/01/15 10:24:17;;;;;;;1.52;0.60;;;7.00;99.90;;;;;;4946562;29;20178;-73
2023/01/15 10:26:58;;;;;;;0.57;0.17;;;7.00;99.90;;;;;;4946942;29;20055;-74
2023/01/15 10:29:30;;;;;;;0.88;0.20;;;7.00;99.90;;;;;;4946794;29;20094;-72
2023/01/15 10:32:17;;;;;;;1.30;0.38;;;7.00;99.90;;;;;;4946335;29;20336;-72
2023/01/15 10:35:28;;;;;;;0.63;0.13;;;6.90;99.90;;;;;;4946979;29;20035;-70
2023/01/15 10:38:13;;;;;;;0.45;0.10;;;6.80;99.90;;;;;;4945630;29;20309;-70
2023/01/15 10:40:54;;;;;;;0.32;0.10;;;6.70;99.90;;;;;;4945712;29;20261;-72
2023/01/15 10:43:38;;;;;;;0.68;0.20;;;6.60;99.90;;;;;;4947071;29;20051;-72
2023/01/15 10:46:16;;;;;;;0.68;0.20;;;6.60;99.90;;;;;;4946297;29;20136;-72
2023/01/15 10:48:47;;;;;;;0.63;0.20;;;6.50;99.90;;;;;;4946913;29;20090;-71
2023/01/15 10:51:28;;;;;;;0.70;0.20;;;6.40;99.90;;;;;;4946827;29;20038;-72
2023/01/15 10:54:16;;;;;;;1.27;0.10;;;6.30;99.90;;;;;;4946044;29;20067;-72
2023/01/15 10:57:10;;;;;;;0.60;0.10;;;6.20;99.90;;;;;;4925739;29;20039;-79
2023/01/15 10:59:49;;;;;;;1.40;0.10;;;6.20;99.90;;;;;;4934922;29;20024;-71
2023/01/15 11:02:20;;;;;;;0.80;0.20;;;6.10;99.90;;;;;;4946525;29;20055;-71
2023/01/15 11:04:46;;;;;;;2.22;0.77;;;6.00;99.90;;;;;;4945292;29;20034;-71
2023/01/15 11:07:12;;;;;;;0.60;0.10;;;5.70;99.90;;;;;;4946701;29;20039;-71
2023/01/15 11:09:40;;;;;;;0.40;0.10;;;5.60;99.90;;;;;;4946906;29;20034;-71
2023/01/15 11:20:28;;;;;;;0.70;0.20;;;5.40;99.90;;;;;;4953817;29;20071;-72
2023/01/15 11:22:56;;;;;;;0.20;0.10;;;5.50;99.90;;;;;;4944601;29;20070;-72
2023/01/15 11:25:28;;;;;;;0.57;0.10;;;5.40;99.90;;;;;;4947132;29;20055;-74
2023/01/15 11:27:54;;;;;;;0.47;0.20;;;5.30;99.90;;;;;;4946221;29;20035;-73
2023/01/15 11:30:33;;;;;;;0.82;0.20;;;5.30;99.90;;;;;;4944890;29;20040;-71
2023/01/15 11:33:02;;;;;;;0.90;0.40;;;5.20;99.90;;;;;;4945466;29;20095;-70
2023/01/15 11:35:29;;;;;;;1.63;0.20;;;5.20;99.90;;;;;;4944851;29;20083;-70
2023/01/15 11:38:13;;;;;;;0.50;0.10;;;5.10;99.90;;;;;;4945053;29;20115;-68
2023/01/15 11:40:38;;;;;;;0.88;0.10;;;5.10;99.90;;;;;;4945397;29;20048;-70
2023/01/15 11:51:43;;;;;;;0.40;0.10;;;4.90;99.90;;;;;;4926817;29;20028;-70
2023/01/15 11:54:12;;;;;;;0.50;0.20;;;4.90;99.90;;;;;;4940714;29;20028;-70
2023/01/15 11:56:42;;;;;;;0.68;0.30;;;4.90;99.90;;;;;;4927536;29;20036;-69
2023/01/15 11:59:18;;;;;;;1.30;0.10;;;4.90;99.90;;;;;;4944291;29;20027;-69
2023/01/15 12:02:02;;;;;;;0.52;0.20;;;5.00;99.90;;;;;;4944445;29;20043;-70
2023/01/15 12:04:34;;;;;;;1.15;0.30;;;5.10;99.90;;;;;;4943973;29;20266;-70
2023/01/15 12:07:02;;;;;;;0.40;0.10;;;5.20;99.90;;;;;;4942753;29;20031;-69
2023/01/15 12:09:42;;;;;;;0.70;0.20;;;5.20;99.90;;;;;;4945048;29;20023;-71
2023/01/15 12:12:20;;;;;;;0.25;0.10;;;5.20;99.90;;;;;;4943748;29;20079;-69
2023/01/15 12:14:52;;;;;;;0.68;0.20;;;5.30;99.90;;;;;;4944930;29;20297;-69
2023/01/15 12:17:27;;;;;;;1.02;0.15;;;5.30;99.90;;;;;;4945289;29;20309;-70
2023/01/15 12:20:17;;;;;;;0.82;0.20;;;5.30;99.90;;;;;;4944517;29;20234;-71
2023/01/15 12:23:17;;;;;;;0.55;0.10;;;5.30;99.90;;;;;;4945057;29;20024;-68
2023/01/15 12:26:16;;;;;;;0.73;0.10;;;5.30;99.90;;;;;;4942145;29;20042;-70
2023/01/15 12:28:57;;;;;;;0.95;0.60;;;5.30;99.90;;;;;;4944502;29;20042;-71
2023/01/15 12:31:32;;;;;;;2.58;0.85;;;5.30;99.90;;;;;;4942417;29;20031;-70
2023/01/15 12:34:21;;;;;;;2.05;0.57;;;5.30;99.90;;;;;;4944226;29;20027;-70
2023/01/15 12:36:59;;;;;;;5.45;2.30;;;5.20;99.90;;;;;;4941980;29;20087;-70
2023/01/15 12:39:41;;;;;;;4.30;1.58;;;5.20;99.90;;;;;;4944755;29;20035;-71
2023/01/15 12:45:06;;;;;;;1.20;0.40;;;5.30;99.90;;;;;;4944441;29;20028;-70
2023/01/15 12:47:47;;;;;;;1.40;0.43;;;5.20;99.90;;;;;;4944536;29;20075;-69
2023/01/15 12:50:28;;;;;;;2.83;1.15;;;5.30;99.90;;;;;;4944456;29;20470;-69
2023/01/15 12:53:03;;;;;;;2.22;0.70;;;5.30;99.90;;;;;;4944177;29;20040;-68
2023/01/15 12:55:33;;;;;;;1.00;0.30;;;5.30;99.90;;;;;;4944442;29;20110;-69
2023/01/15 12:58:03;;;;;;;2.40;0.40;;;5.40;99.90;;;;;;4944413;29;20087;-72
2023/01/15 13:00:56;;;;;;;1.80;0.40;;;5.40;99.90;;;;;;4944691;29;20102;-69
2023/01/15 13:03:39;;;;;;;2.03;0.40;;;5.50;99.90;;;;;;4944560;29;20094;-68
2023/01/15 13:06:08;;;;;;;1.70;0.30;;;5.50;99.90;;;;;;4943930;29;20038;-69
2023/01/15 13:08:47;;;;;;;1.95;0.40;;;5.50;99.90;;;;;;4944667;29;20055;-70
2023/01/15 13:11:13;;;;;;;1.90;0.30;;;5.50;99.90;;;;;;4944292;29;20035;-69
2023/01/15 13:13:41;;;;;;;1.77;0.50;;;5.60;99.90;;;;;;4944527;29;20094;-69
2023/01/15 13:16:25;;;;;;;0.88;0.28;;;5.60;99.90;;;;;;4944175;29;20035;-70
2023/01/15 13:19:28;;;;;;;2.08;0.40;;;5.70;99.90;;;;;;4944767;29;20020;-70
2023/01/15 13:22:00;;;;;;;1.65;0.30;;;5.80;99.90;;;;;;4944196;29;20047;-71
2023/01/15 13:24:52;;;;;;;0.70;0.30;;;5.90;99.90;;;;;;4944410;29;20117;-72
2023/01/15 13:27:29;;;;;;;1.55;0.30;;;6.00;99.90;;;;;;4944143;29;20027;-70
2023/01/15 13:30:13;;;;;;;1.27;0.40;;;5.90;99.90;;;;;;4944077;29;20028;-70
2023/01/15 13:32:47;;;;;;;2.88;0.68;;;5.90;99.90;;;;;;4944301;29;20266;-70
2023/01/15 13:35:31;;;;;;;0.63;0.20;;;6.00;99.90;;;;;;4944258;29;20095;-68
2023/01/15 13:38:01;;;;;;;2.33;0.45;;;5.80;99.90;;;;;;4944338;29;20059;-71
2023/01/15 13:40:34;;;;;;;1.88;0.60;;;5.90;99.90;;;;;;4942985;28;20059;-70
2023/01/15 13:43:01;;;;;;;2.28;0.70;;;5.90;99.90;;;;;;4943945;29;20043;-70
2023/01/15 13:45:27;;;;;;;2.40;0.45;;;6.00;99.90;;;;;;4947044;29;20037;-72
2023/01/15 13:48:22;;;;;;;1.70;0.45;;;6.10;99.90;;;;;;4947770;29;20226;-70
2023/01/15 13:50:57;;;;;;;1.85;0.20;;;6.10;99.90;;;;;;4962783;29;20336;-71
2023/01/15 13:53:39;;;;;;;2.00;0.65;;;6.10;99.90;;;;;;4946961;29;20336;-71
2023/01/15 13:56:08;;;;;;;2.03;0.70;;;6.10;99.90;;;;;;4947149;29;20242;-71
2023/01/15 13:58:38;;;;;;;1.73;0.60;;;6.10;99.90;;;;;;4962702;28;20031;-71
2023/01/15 14:01:17;;;;;;;7.18;1.05;;;6.20;99.90;;;;;;4947049;29;20047;-71
2023/01/15 14:04:02;;;;;;;6.03;2.47;;;6.80;99.90;;;;;;4947227;29;20055;-71
2023/01/15 14:06:46;;;;;;;3.13;0.70;;;7.70;99.90;;;;;;4947722;29;20043;-71
2023/01/15 14:09:24;;;;;;;2.17;0.55;;;8.50;99.90;;;;;;4946883;29;20310;-71
2023/01/15 14:12:14;;;;;;;2.35;0.45;;;9.20;99.90;;;;;;4947145;29;20103;-72
2023/01/15 14:15:03;;;;;;;1.92;0.70;;;9.70;99.90;;;;;;4947640;29;20031;-75
2023/01/15 14:17:56;;;;;;;2.25;0.30;;;9.60;99.90;;;;;;4947566;29;20044;-72
2023/01/15 14:20:34;;;;;;;2.13;0.50;;;10.10;99.40;;;;;;4947087;29;20042;-74
2023/01/15 14:23:18;;;;;;;2.58;0.40;;;10.40;99.00;;;;;;4946717;29;20078;-73
2023/01/15 14:25:58;;;;;;;1.88;0.77;;;10.20;98.30;;;;;;4961830;28;20038;-73
2023/01/15 14:28:30;;;;;;;2.42;0.70;;;9.70;98.60;;;;;;4947280;29;20040;-73
2023/01/15 14:31:02;;;;;;;3.45;0.40;;;9.40;98.80;;;;;;4946931;29;20027;-77
2023/01/15 14:33:40;;;;;;;5.35;0.55;;;9.30;99.10;;;;;;4946909;29;20313;-74
2023/01/15 14:36:15;;;;;;;2.10;0.30;;;9.20;98.40;;;;;;4946444;29;20035;-73
2023/01/15 14:38:48;;;;;;;2.17;0.40;;;9.10;98.60;;;;;;4946819;29;20028;-73
2023/01/15 14:41:14;;;;;;;2.53;0.40;;;9.00;98.50;;;;;;4946470;29;20214;-71
2023/01/15 14:43:47;;;;;;;4.47;1.52;;;8.90;99.10;;;;;;4947628;29;20075;-73
2023/01/15 14:46:32;;;;;;;2.45;0.73;;;9.10;99.10;;;;;;4946025;29;20099;-75
2023/01/15 14:48:59;;;;;;;3.53;0.30;;;9.30;98.20;;;;;;4946086;29;20043;-76
2023/01/15 14:51:44;;;;;;;1.90;0.40;;;9.20;98.00;;;;;;4946453;29;20046;-74
2023/01/15 14:54:15;;;;;;;2.63;0.50;;;9.40;98.40;;;;;;4945954;29;20094;-74
2023/01/15 14:56:49;;;;;;;2.60;0.65;;;9.40;97.50;;;;;;4945387;29;20310;-73
2023/01/15 14:59:43;;;;;;;3.65;1.00;;;9.60;97.50;;;;;;4945463;29;20191;-73
2023/01/15 15:02:21;;;;;;;2.72;0.50;;;9.90;96.20;;;;;;4944300;29;20059;-72
2023/01/15 15:04:52;;;;;;;3.80;0.90;;;9.80;96.70;;;;;;4946559;29;20024;-73
2023/01/15 15:07:24;;;;;;;3.05;0.90;;;9.70;97.10;;;;;;4945968;29;20244;-73
2023/01/15 15:10:19;;;;;;;4.55;2.00;;;9.60;97.00;;;;;;4946013;29;20054;-75
2023/01/15 15:13:14;;;;;;;2.92;0.50;;;9.20;97.00;;;;;;4945519;29;20099;-73
2023/01/15 15:15:52;;;;;;;3.28;0.90;;;8.80;97.60;;;;;;4946245;29;20075;-72
2023/01/15 15:18:31;;;;;;;3.25;0.70;;;8.40;98.50;;;;;;4945629;29;20340;-73
2023/01/15 15:21:14;;;;;;;2.47;0.57;;;8.10;98.90;;;;;;4945801;29;20249;-73
2023/01/15 15:24:10;;;;;;;5.38;2.33;;;7.60;99.50;;;;;;4946008;29;20110;-72
2023/01/15 15:26:37;;;;;;;4.00;0.98;;;7.10;99.90;;;;;;4946159;29;20078;-72
2023/01/15 15:29:09;;;;;;;1.40;0.50;;;6.90;99.90;;;;;;4945239;29;20028;-72
2023/01/15 15:31:38;;;;;;;4.30;0.85;;;6.70;99.90;;;;;;4946059;29;20036;-73
2023/01/15 15:34:06;;;;;;;2.30;0.63;;;6.60;99.90;;;;;;4944342;29;20031;-74
2023/01/15 15:36:35;;;;;;;1.98;0.50;;;6.40;99.90;;;;;;4945522;29;20128;-72
2023/01/15 15:39:13;;;;;;;1.25;0.28;;;6.30;99.90;;;;;;4945138;29;20099;-74
2023/01/15 15:50:33;;;;;;;2.58;0.80;;;5.80;99.90;;;;;;4945876;29;20040;-74
2023/01/15 15:53:03;;;;;;;2.75;0.50;;;5.80;99.90;;;;;;4948118;29;20093;-74
2023/01/15 15:55:41;;;;;;;4.22;0.50;;;5.80;99.90;;;;;;4952090;29;20096;-73
2023/01/15 15:58:45;;;;;;;1.95;0.68;;;5.70;99.90;;;;;;4951039;29;20032;-73
2023/01/15 16:01:12;;;;;;;1.27;0.55;;;5.60;99.90;;;;;;4947112;29;20337;-70
2023/01/15 16:03:46;;;;;;;4.07;0.73;;;5.50;99.90;;;;;;4945041;29;20349;-73
2023/01/15 16:06:20;;;;;;;1.83;0.60;;;5.50;99.90;;;;;;4943222;29;20471;-73
2023/01/15 16:09:03;;;;;;;1.92;0.57;;;5.30;99.90;;;;;;4944684;29;20071;-72
2023/01/15 16:11:30;;;;;;;2.85;1.33;;;5.30;99.90;;;;;;4944913;29;20031;-74
2023/01/15 16:13:59;;;;;;;4.70;1.05;;;5.20;99.90;;;;;;4944727;29;20051;-74
2023/01/15 16:16:27;;;;;;;4.45;0.70;;;5.20;99.90;;;;;;4944487;29;20027;-72
2023/01/15 16:18:56;;;;;;;2.35;0.60;;;5.20;99.90;;;;;;4944686;29;20031;-72
2023/01/15 16:21:27;;;;;;;1.58;0.50;;;5.30;99.90;;;;;;4944529;29;20047;-74
2023/01/15 16:24:03;;;;;;;3.20;0.90;;;5.20;99.90;;;;;;4944074;29;20023;-73
2023/01/15 16:26:41;;;;;;;2.75;0.90;;;5.20;99.90;;;;;;4936868;29;20305;-73
2023/01/15 16:29:36;;;;;;;3.33;0.95;;;5.10;99.90;;;;;;4944655;29;20032;-72
2023/01/15 16:32:13;;;;;;;6.70;0.90;;;5.00;99.90;;;;;;4944172;29;20032;-71
2023/01/15 16:34:39;;;;;;;3.33;0.60;;;5.00;99.90;;;;;;4945265;29;20059;-71
2023/01/15 16:37:24;;;;;;;3.72;0.63;;;5.00;99.90;;;;;;4944520;29;20031;-73
2023/01/15 16:39:53;;;;;;;3.90;0.98;;;4.90;99.90;;;;;;4944650;29;20055;-74
2023/01/15 16:42:36;;;;;;;3.00;0.80;;;4.80;99.90;;;;;;4944383;29;20045;-74
2023/01/15 16:45:24;;;;;;;1.92;0.70;;;4.80;99.90;;;;;;4944012;29;20199;-75
2023/01/15 16:48:00;;;;;;;2.60;0.75;;;4.60;99.90;;;;;;4944954;29;20050;-73
2023/01/15 16:50:29;;;;;;;2.78;0.70;;;4.50;99.90;;;;;;4944645;29;20163;-74
2023/01/15 16:53:00;;;;;;;3.70;1.00;;;4.40;99.90;;;;;;4944475;29;20059;-73
2023/01/15 16:55:39;;;;;;;1.77;0.65;;;4.30;99.90;;;;;;4944080;29;20305;-73
2023/01/15 16:58:11;;;;;;;3.97;0.60;;;4.30;99.90;;;;;;4944165;29;20027;-73
2023/01/15 17:00:44;;;;;;;3.80;0.90;;;4.30;99.90;;;;;;4943036;29;20043;-72
2023/01/15 17:03:24;;;;;;;2.17;0.70;;;4.30;99.90;;;;;;4942919;29;20245;-71
2023/01/15 17:05:58;;;;;;;2.47;0.70;;;4.30;99.90;;;;;;4944694;29;20073;-74
2023/01/15 17:08:38;;;;;;;2.40;0.90;;;4.30;99.90;;;;;;4944526;29;20066;-73
2023/01/15 17:11:16;;;;;;;3.75;1.10;;;4.20;99.90;;;;;;4944223;29;20032;-74
2023/01/15 17:13:42;;;;;;;4.82;2.00;;;4.20;99.90;;;;;;4944924;29;20051;-71
2023/01/15 17:16:19;;;;;;;4.28;1.50;;;4.30;99.90;;;;;;4944305;29;20028;-74
2023/01/15 17:18:46;;;;;;;2.97;1.67;;;4.20;99.90;;;;;;4945375;29;20368;-71
2023/01/15 17:21:20;;;;;;;3.95;1.08;;;4.20;99.90;;;;;;4947937;29;20261;-73
2023/01/15 17:23:46;;;;;;;4.47;1.58;;;4.20;99.90;;;;;;4948816;29;20028;-73
2023/01/15 17:26:24;;;;;;;6.10;2.28;;;4.20;99.90;;;;;;4948160;29;20046;-72
2023/01/15 17:28:50;;;;;;;3.17;1.38;;;4.20;99.90;;;;;;4948793;29;20086;-75
2023/01/15 17:31:29;;;;;;;2.60;0.80;;;4.10;99.90;;;;;;4948560;29;20039;-75
2023/01/15 17:34:00;;;;;;;3.13;1.23;;;4.10;99.90;;;;;;4948201;29;20032;-74
2023/01/15 17:36:35;;;;;;;5.35;1.48;;;4.10;99.90;;;;;;4947403;29;20067;-74
2023/01/15 17:39:05;;;;;;;4.68;2.10;;;4.10;99.90;;;;;;4947668;29;20032;-73
2023/01/15 17:41:31;;;;;;;3.47;1.42;;;4.00;99.90;;;;;;4950368;29;20054;-71
2023/01/15 17:43:56;;;;;;;3.67;1.50;;;4.00;99.90;;;;;;4948884;29;20036;-73
2023/01/15 17:46:23;;;;;;;4.13;1.85;;;3.90;99.90;;;;;;4949598;29;20063;-70
2023/01/15 17:48:51;;;;;;;3.33;1.17;;;3.80;99.90;;;;;;4948390;29;20051;-74
2023/01/15 17:51:17;;;;;;;4.57;1.30;;;3.80;99.90;;;;;;4948028;29;20039;-73
2023/01/15 17:53:43;;;;;;;4.43;2.08;;;3.80;99.90;;;;;;4949001;29;20199;-72
2023/01/15 18:07:32;;;;;;;6.53;2.33;;;3.70;99.90;;;;;;4929570;29;20040;-74
2023/01/15 18:10:02;;;;;;;8.00;2.47;;;3.60;99.90;;;;;;4938601;29;20031;-74
2023/01/15 18:12:30;;;;;;;4.85;1.92;;;3.60;99.90;;;;;;4946815;29;20058;-72
2023/01/15 18:14:55;;;;;;;4.57;1.40;;;3.60;99.90;;;;;;4948292;29;20197;-71
2023/01/15 18:17:30;;;;;;;5.35;1.50;;;3.60;99.90;;;;;;4947905;29;20051;-73
2023/01/15 18:19:55;;;;;;;3.50;1.30;;;3.60;99.90;;;;;;4948001;29;20024;-72
2023/01/15 18:22:21;;;;;;;4.60;1.48;;;3.60;99.90;;;;;;4947506;29;20377;-74
2023/01/15 18:24:47;;;;;;;5.00;1.63;;;3.60;99.90;;;;;;4947115;29;20365;-72
2023/01/15 18:27:13;;;;;;;4.68;1.65;;;3.60;99.90;;;;;;4947835;29;20053;-74
2023/01/15 18:29:39;;;;;;;6.05;1.77;;;3.60;99.90;;;;;;4947915;29;20225;-72
2023/01/15 18:32:08;;;;;;;5.82;1.67;;;3.50;99.90;;;;;;4947865;29;20024;-72
2023/01/15 18:34:35;;;;;;;5.75;1.70;;;3.40;99.90;;;;;;4947124;29;20043;-71
2023/01/15 18:37:01;;;;;;;9.00;5.03;;;3.30;99.90;;;;;;4947360;29;20282;-73
2023/01/15 18:39:26;;;;;;;5.90;2.78;;;3.40;99.90;;;;;;4945699;29;20083;-72
2023/01/15 18:47:09;;;;;;;4.43;1.10;;;3.40;99.90;;;;;;4947274;29;20040;-72
2023/01/15 18:49:35;;;;;;;2.53;0.80;;;3.40;99.90;;;;;;4947194;29;20035;-71
2023/01/15 18:54:46;;;;;;;7.25;1.80;;;3.60;99.90;;;;;;4946029;29;20032;-73
2023/01/15 18:57:12;;;;;;;3.22;1.30;;;3.70;99.90;;;;;;4945791;29;20147;-71
2023/01/15 18:59:37;;;;;;;4.50;1.70;;;3.90;99.90;;;;;;4946766;29;20187;-75
2023/01/15 19:02:04;;;;;;;4.28;1.20;;;3.90;99.90;;;;;;4946162;29;20074;-73
2023/01/15 19:04:30;;;;;;;4.90;1.92;;;3.90;99.90;;;;;;4945866;29;20208;-73
2023/01/15 19:06:56;;;;;;;4.32;1.25;;;4.00;99.90;;;;;;4946465;29;20019;-73
2023/01/15 19:09:25;;;;;;;2.60;0.80;;;4.00;99.90;;;;;;4945719;29;20027;-71
2023/01/15 19:11:52;;;;;;;5.43;0.95;;;4.20;99.90;;;;;;4946977;29;20051;-72
2023/01/15 19:19:49;;;;;;;5.07;1.30;;;4.30;99.90;;;;;;4946371;29;20043;-72
2023/01/15 19:25:01;;;;;;;4.13;1.02;;;4.40;99.90;;;;;;4946453;29;20032;-73
2023/01/15 19:27:27;;;;;;;2.38;1.23;;;4.50;99.90;;;;;;4945984;29;20217;-73
2023/01/15 19:29:53;;;;;;;3.55;1.00;;;4.60;99.90;;;;;;4946391;29;20046;-72
2023/01/15 19:32:19;;;;;;;4.53;1.00;;;4.60;99.90;;;;;;4945525;29;20062;-73
2023/01/15 19:34:44;;;;;;;4.22;0.93;;;4.60;99.90;;;;;;4945875;29;20220;-75
2023/01/15 19:37:10;;;;;;;3.22;1.10;;;4.50;99.90;;;;;;4946118;29;20035;-72
2023/01/15 19:39:36;;;;;;;3.72;0.80;;;4.50;99.90;;;;;;4945285;29;20082;-72
2023/01/15 19:50:37;;;;;;;3.20;0.95;;;4.60;99.90;;;;;;4945700;29;20138;-72
2023/01/15 19:53:03;;;;;;;4.90;1.20;;;4.60;99.90;;;;;;4945859;29;20102;-72
2023/01/15 19:55:31;;;;;;;4.30;0.90;;;4.40;99.90;;;;;;4945487;29;20047;-73
2023/01/15 19:57:59;;;;;;;4.68;1.60;;;4.50;99.90;;;;;;4945716;29;20075;-74
2023/01/15 20:00:26;;;;;;;4.97;0.70;;;4.40;99.90;;;;;;4945172;29;20030;-72
2023/01/15 20:02:53;;;;;;;4.88;1.33;;;4.40;99.90;;;;;;4945192;29;20063;-73
2023/01/15 20:05:27;;;;;;;3.90;0.70;;;4.40;99.90;;;;;;4944264;29;20019;-72
2023/01/15 20:07:53;;;;;;;1.17;0.40;;;4.40;99.90;;;;;;4945288;29;20023;-72
2023/01/15 20:10:21;;;;;;;3.50;0.95;;;4.40;99.90;;;;;;4944907;29;20031;-73
2023/01/15 20:15:31;;;;;;;4.05;1.13;;;4.40;99.90;;;;;;4945190;29;20031;-73
2023/01/15 20:17:57;;;;;;;4.28;0.82;;;4.40;99.90;;;;;;4945213;29;20340;-72
2023/01/15 20:20:25;;;;;;;4.68;1.08;;;4.40;99.90;;;;;;4944482;29;20047;-73
2023/01/15 20:22:51;;;;;;;4.35;0.80;;;4.40;99.90;;;;;;4945770;29;20043;-70
2023/01/15 20:25:17;;;;;;;4.93;1.00;;;4.40;99.90;;;;;;4944193;29;20031;-72
2023/01/15 20:27:43;;;;;;;5.45;1.00;;;4.40;99.90;;;;;;4946283;29;20094;-71
2023/01/15 20:30:14;;;;;;;5.93;0.80;;;4.40;99.90;;;;;;4950032;29;20039;-72
2023/01/15 20:32:43;;;;;;;3.75;0.75;;;4.40;99.90;;;;;;4948483;29;20023;-72
2023/01/15 20:35:13;;;;;;;4.18;0.85;;;4.40;99.90;;;;;;4946367;29;20055;-73
2023/01/15 20:37:39;;;;;;;4.25;1.08;;;4.30;99.90;;;;;;4944027;29;20039;-73
2023/01/15 20:40:06;;;;;;;4.03;1.02;;;4.30;99.90;;;;;;4946531;29;20058;-72
2023/01/15 20:45:16;;;;;;;2.42;0.60;;;4.10;99.90;;;;;;4945859;29;20162;-71
2023/01/15 20:50:29;;;;;;;4.35;1.60;;;3.90;99.90;;;;;;4944441;29;20043;-72
2023/01/15 20:52:58;;;;;;;6.25;1.02;;;3.80;99.90;;;;;;4944485;29;20039;-72
2023/01/15 20:55:30;;;;;;;3.92;1.00;;;3.80;99.90;;;;;;4944191;29;20027;-75
2023/01/15 20:57:56;;;;;;;5.93;1.48;;;3.80;99.90;;;;;;4944197;29;20040;-71